Time;durP1;ratioP1;P1;durP2;ratioP2;P2;SDS_P1;SDS_P2;PMS_P1;PMS_P2;Temp;Humidity;BMP_temperature;BMP_pressure;BME280_temperature;BME280_humidity;BME280_pressure;Samples;Min_cycle;Max_cycle;Signal;HPM_P1;HPM_P2
2022/10/30 00:01:18;;;;;;;16.50;8.48;;;;;;;9.41;100.00;97209.91;4957719;28;20049;-70
2022/10/30 00:03:43;;;;;;;12.23;7.47;;;;;;;9.38;100.00;97208.63;4963257;28;20058;-67
2022/10/30 00:06:09;;;;;;;13.68;7.13;;;;;;;9.37;100.00;97209.81;4958223;28;20095;-70
2022/10/30 00:08:35;;;;;;;17.77;7.32;;;;;;;9.28;100.00;97206.41;4971084;28;20118;-70
2022/10/30 00:11:09;;;;;;;10.60;7.03;;;;;;;9.23;100.00;97201.97;4979627;28;20189;-69
2022/10/30 00:13:35;;;;;;;13.05;7.28;;;;;;;9.22;100.00;97210.50;4968064;28;20054;-69
2022/10/30 00:16:06;;;;;;;15.23;7.32;;;;;;;9.12;100.00;97198.91;4961454;28;20042;-71
2022/10/30 00:18:35;;;;;;;12.18;7.78;;;;;;;9.10;100.00;97200.41;4960717;28;20225;-72
2022/10/30 00:21:12;;;;;;;12.35;6.35;;;;;;;9.18;100.00;97205.75;4972702;28;20043;-68
2022/10/30 00:23:39;;;;;;;10.68;6.38;;;;;;;9.17;100.00;97197.91;4960819;28;20039;-69
2022/10/30 00:26:06;;;;;;;8.80;6.30;;;;;;;9.19;100.00;97198.34;4960800;28;20091;-69
2022/10/30 00:28:32;;;;;;;11.05;6.07;;;;;;;9.12;100.00;97195.41;4970450;28;20046;-69
2022/10/30 00:30:59;;;;;;;9.70;6.40;;;;;;;9.06;100.00;97200.31;4970446;28;20361;-69
2022/10/30 00:33:24;;;;;;;11.63;5.88;;;;;;;9.04;100.00;97197.13;4986679;28;20043;-68
2022/10/30 00:35:50;;;;;;;8.90;5.80;;;;;;;9.05;100.00;97200.66;5001333;28;20079;-65
2022/10/30 00:38:15;;;;;;;14.57;6.57;;;;;;;8.92;100.00;97197.94;4961635;28;20090;-69
2022/10/30 00:40:41;;;;;;;12.48;6.78;;;;;;;8.93;100.00;97207.72;4965410;28;20473;-68
2022/10/30 00:43:25;;;;;;;14.18;6.82;;;;;;;8.84;100.00;97212.53;4960711;28;20035;-69
2022/10/30 00:45:51;;;;;;;14.05;6.22;;;;;;;8.85;100.00;97213.31;4969464;28;20042;-67
2022/10/30 00:48:17;;;;;;;12.85;6.85;;;;;;;8.86;100.00;97206.69;4982319;28;20053;-70
2022/10/30 00:50:42;;;;;;;14.38;6.68;;;;;;;8.81;100.00;97207.72;4992229;28;20045;-69
2022/10/30 00:53:11;;;;;;;14.32;7.20;;;;;;;8.49;100.00;97212.16;4983600;28;20066;-68
2022/10/30 00:55:45;;;;;;;11.90;6.68;;;;;;;8.34;100.00;97191.78;4974692;28;20034;-71
2022/10/30 00:58:14;;;;;;;18.02;6.10;;;;;;;8.26;100.00;97206.31;4979619;28;20030;-69
2022/10/30 01:00:45;;;;;;;9.20;5.97;;;;;;;8.18;100.00;97202.56;4993534;28;20046;-66
2022/10/30 01:03:10;;;;;;;12.60;6.97;;;;;;;7.98;100.00;97198.75;5004331;28;20010;-67
2022/10/30 01:05:37;;;;;;;11.88;7.60;;;;;;;7.82;100.00;97198.59;4980601;28;20062;-70
2022/10/30 01:08:03;;;;;;;12.40;7.47;;;;;;;7.82;100.00;97198.59;4978563;28;20078;-71
2022/10/30 01:10:29;;;;;;;10.02;6.57;;;;;;;8.00;100.00;97200.00;4983895;28;20039;-70
2022/10/30 01:12:57;;;;;;;10.45;7.63;;;;;;;8.18;100.00;97197.88;4976596;28;20484;-68
2022/10/30 01:15:28;;;;;;;17.10;8.52;;;;;;;8.45;100.00;97184.75;4986159;28;20066;-69
2022/10/30 01:18:12;;;;;;;21.13;9.60;;;;;;;8.69;100.00;97189.41;4975405;28;20035;-71
2022/10/30 01:21:06;;;;;;;35.58;10.27;;;;;;;8.68;100.00;97195.19;4974903;28;20039;-69
2022/10/30 01:23:49;;;;;;;35.13;9.88;;;;;;;8.57;100.00;97194.88;4984953;28;20117;-70
2022/10/30 01:26:49;;;;;;;16.70;10.07;;;;;;;8.54;100.00;97190.91;4977869;28;20030;-70
2022/10/30 01:29:42;;;;;;;22.27;9.68;;;;;;;8.44;100.00;97191.34;4985772;28;20435;-69
2022/10/30 01:32:15;;;;;;;17.40;9.48;;;;;;;8.48;100.00;97186.00;4987924;28;20045;-70
2022/10/30 01:34:56;;;;;;;13.40;8.43;;;;;;;8.47;100.00;97185.19;4994022;28;20033;-70
2022/10/30 01:37:43;;;;;;;15.00;9.63;;;;;;;8.48;100.00;97181.34;4991640;28;20030;-72
2022/10/30 01:40:12;;;;;;;16.67;9.18;;;;;;;8.33;100.00;97182.75;4985235;28;20039;-68
2022/10/30 01:42:43;;;;;;;14.40;8.10;;;;;;;8.26;100.00;97176.28;4977216;28;20133;-71
2022/10/30 01:45:20;;;;;;;17.15;9.45;;;;;;;8.20;100.00;97175.72;4977322;28;20040;-72
2022/10/30 01:48:27;;;;;;;14.07;9.13;;;;;;;8.19;100.00;97185.03;4976018;28;20027;-69
2022/10/30 01:51:10;;;;;;;15.07;8.15;;;;;;;8.13;100.00;97175.47;4976656;28;20041;-70
2022/10/30 01:53:50;;;;;;;15.85;8.80;;;;;;;8.10;100.00;97176.16;4991499;28;20400;-69
2022/10/30 01:56:34;;;;;;;14.38;9.95;;;;;;;8.04;100.00;97175.56;4975020;28;20030;-69
2022/10/30 01:58:59;;;;;;;19.02;10.00;;;;;;;8.08;100.00;97175.69;4978225;28;20034;-67
2022/10/30 02:01:27;;;;;;;18.63;9.50;;;;;;;7.92;100.00;97178.28;4975820;28;20039;-69
2022/10/30 02:03:52;;;;;;;18.63;10.45;;;;;;;7.55;100.00;97176.22;4975541;28;20035;-70
2022/10/30 02:06:18;;;;;;;36.85;10.00;;;;;;;7.46;100.00;97170.06;4976112;28;20082;-70
2022/10/30 02:08:43;;;;;;;27.63;10.52;;;;;;;7.37;100.00;97172.88;4986488;28;20085;-69
2022/10/30 02:11:09;;;;;;;60.45;13.32;;;;;;;7.57;100.00;97175.91;4985012;28;20431;-70
2022/10/30 02:13:36;;;;;;;22.63;11.98;;;;;;;7.76;100.00;97167.19;4977280;28;20037;-68
2022/10/30 02:16:02;;;;;;;29.30;12.60;;;;;;;8.11;100.00;97164.13;4975074;28;20039;-67
2022/10/30 02:18:28;;;;;;;29.98;13.27;;;;;;;8.34;100.00;97161.75;4975356;28;20527;-70
2022/10/30 02:20:54;;;;;;;76.13;13.82;;;;;;;8.32;100.00;97155.81;4977328;28;20484;-68
2022/10/30 02:23:21;;;;;;;27.17;12.10;;;;;;;8.36;100.00;97148.56;4976588;28;20093;-70
2022/10/30 02:25:46;;;;;;;150.02;16.40;;;;;;;8.36;100.00;97154.81;4985800;28;20038;-69
2022/10/30 02:28:12;;;;;;;125.50;16.58;;;;;;;8.35;100.00;97146.94;4990216;28;20043;-69
2022/10/30 02:30:39;;;;;;;93.03;17.85;;;;;;;8.34;100.00;97139.91;4994312;28;20034;-72
2022/10/30 02:33:04;;;;;;;71.68;17.83;;;;;;;8.37;100.00;97142.75;4992016;28;20510;-69
2022/10/30 02:35:30;;;;;;;32.72;15.10;;;;;;;8.48;100.00;97148.59;4984735;28;20047;-69
2022/10/30 02:37:55;;;;;;;95.75;17.40;;;;;;;8.57;100.00;97134.78;4989244;28;20026;-70
2022/10/30 02:40:21;;;;;;;37.38;15.35;;;;;;;8.56;100.00;97142.19;4982179;28;20042;-70
2022/10/30 02:42:54;;;;;;;35.95;15.52;;;;;;;8.76;100.00;97150.59;4975009;28;20065;-70
2022/10/30 02:45:20;;;;;;;31.85;14.48;;;;;;;8.95;100.00;97141.81;4979494;28;20050;-71
2022/10/30 02:47:45;;;;;;;29.33;13.60;;;;;;;9.09;100.00;97144.16;4982605;28;20131;-70
2022/10/30 02:50:11;;;;;;;90.97;16.70;;;;;;;8.99;100.00;97151.69;4975797;28;20062;-71
2022/10/30 02:52:36;;;;;;;94.95;16.23;;;;;;;8.82;100.00;97145.69;4974610;28;20310;-71
2022/10/30 02:55:02;;;;;;;158.77;17.45;;;;;;;8.59;100.00;97146.97;4974356;28;20031;-70
2022/10/30 02:57:27;;;;;;;35.95;16.40;;;;;;;8.69;100.00;97142.19;4973988;28;20396;-71
2022/10/30 02:59:53;;;;;;;66.20;16.85;;;;;;;8.84;100.00;97141.50;4982490;28;20073;-68
2022/10/30 03:02:18;;;;;;;40.53;14.88;;;;;;;9.00;100.00;97144.28;4985725;28;20034;-70
2022/10/30 03:04:43;;;;;;;39.65;15.68;;;;;;;9.18;100.00;97144.81;4994686;28;20038;-68
2022/10/30 03:07:09;;;;;;;36.35;15.15;;;;;;;9.22;100.00;97128.50;4986128;28;20096;-71
2022/10/30 03:09:34;;;;;;;37.83;15.98;;;;;;;9.33;100.00;97135.88;4981943;28;20114;-70
2022/10/30 03:11:59;;;;;;;51.92;15.40;;;;;;;9.28;100.00;97130.66;4973557;28;20037;-67
2022/10/30 03:14:25;;;;;;;34.00;15.18;;;;;;;9.27;100.00;97133.75;4979546;28;20066;-69
2022/10/30 03:16:54;;;;;;;60.83;15.73;;;;;;;9.27;100.00;97133.75;4980619;28;20054;-68
2022/10/30 03:19:19;;;;;;;72.97;14.57;;;;;;;9.02;100.00;97141.22;4972934;28;20358;-69
2022/10/30 03:21:45;;;;;;;38.67;13.95;;;;;;;8.93;100.00;97142.16;4973550;28;20038;-68
2022/10/30 03:24:10;;;;;;;28.55;13.05;;;;;;;8.95;100.00;97141.81;4973559;28;20059;-71
2022/10/30 03:26:35;;;;;;;34.28;13.15;;;;;;;9.07;100.00;97139.03;4972646;28;20038;-70
2022/10/30 03:29:01;;;;;;;46.60;12.45;;;;;;;8.96;100.00;97141.44;4978070;28;20085;-71
2022/10/30 03:31:30;;;;;;;25.17;12.07;;;;;;;8.93;100.00;97136.69;4986442;28;20492;-69
2022/10/30 03:33:55;;;;;;;23.77;12.23;;;;;;;9.02;100.00;97138.47;4973313;28;20464;-70
2022/10/30 03:36:21;;;;;;;28.77;11.63;;;;;;;9.04;100.00;97139.75;4972218;28;20093;-68
2022/10/30 03:38:46;;;;;;;19.65;10.77;;;;;;;9.06;100.00;97131.22;4976622;28;20455;-71
2022/10/30 03:41:11;;;;;;;18.48;10.32;;;;;;;9.04;100.00;97139.75;4983725;28;20034;-70
2022/10/30 03:43:37;;;;;;;24.48;10.93;;;;;;;8.98;100.00;97141.94;4992516;28;20042;-69
2022/10/30 03:46:02;;;;;;;24.73;10.60;;;;;;;8.95;100.00;97142.59;4987328;28;20507;-70
2022/10/30 03:48:28;;;;;;;28.20;11.85;;;;;;;8.92;100.00;97137.03;4981765;28;20034;-70
2022/10/30 03:50:55;;;;;;;24.92;11.82;;;;;;;8.91;100.00;97135.44;4979000;28;20035;-70
2022/10/30 03:53:22;;;;;;;30.88;13.30;;;;;;;8.98;100.00;97135.66;4982112;28;20034;-69
2022/10/30 03:55:48;;;;;;;28.05;12.32;;;;;;;9.02;100.00;97150.22;4973622;28;20031;-70
2022/10/30 03:58:14;;;;;;;24.73;11.77;;;;;;;9.00;100.00;97147.03;4974084;28;20119;-70
2022/10/30 04:00:39;;;;;;;30.60;12.90;;;;;;;8.98;100.00;97149.31;4976948;28;20047;-72
2022/10/30 04:03:07;;;;;;;45.92;13.20;;;;;;;8.92;100.00;97148.75;4977892;28;20484;-71
2022/10/30 04:05:32;;;;;;;22.35;11.65;;;;;;;8.91;100.00;97141.72;4984141;28;20499;-71
2022/10/30 04:08:00;;;;;;;68.50;13.50;;;;;;;8.61;100.00;97147.44;4992687;28;20065;-69
2022/10/30 04:10:25;;;;;;;73.85;13.10;;;;;;;8.15;100.00;97145.91;5006847;28;20038;-71
2022/10/30 04:12:51;;;;;;;108.57;16.13;;;;;;;8.04;100.00;97142.84;5002449;28;20809;-72
2022/10/30 04:15:17;;;;;;;91.43;15.43;;;;;;;7.88;100.00;97147.34;4997941;28;20038;-70
2022/10/30 04:17:52;;;;;;;120.85;18.67;;;;;;;7.83;100.00;97140.19;5001617;28;20153;-71
2022/10/30 04:20:18;;;;;;;41.58;16.90;;;;;;;7.95;100.00;97145.66;5001147;28;20042;-69
2022/10/30 04:22:44;;;;;;;33.42;15.13;;;;;;;8.23;100.00;97150.47;4996412;28;20061;-68
2022/10/30 04:25:10;;;;;;;30.88;15.98;;;;;;;8.46;100.00;97144.59;4987999;28;20030;-69
2022/10/30 04:27:42;;;;;;;42.92;17.38;;;;;;;8.47;100.00;97143.47;4978627;28;20141;-71
2022/10/30 04:30:10;;;;;;;30.88;16.73;;;;;;;8.52;100.00;97135.84;4978806;28;20026;-70
2022/10/30 04:32:35;;;;;;;25.20;15.05;;;;;;;8.61;100.00;97141.19;4987290;28;20035;-70
2022/10/30 04:35:02;;;;;;;44.22;15.85;;;;;;;8.36;100.00;97143.88;4995178;28;20034;-71
2022/10/30 04:37:28;;;;;;;24.02;15.40;;;;;;;8.35;100.00;97153.19;4993617;28;20425;-70
2022/10/30 04:39:53;;;;;;;36.03;16.35;;;;;;;8.35;100.00;97147.75;4985070;28;20049;-71
2022/10/30 04:42:19;;;;;;;116.60;19.55;;;;;;;8.00;100.00;97150.13;4977438;28;20085;-68
2022/10/30 04:44:44;;;;;;;42.08;16.92;;;;;;;7.95;100.00;97133.97;4982439;28;20111;-70
2022/10/30 04:47:10;;;;;;;56.78;17.35;;;;;;;7.87;100.00;97141.13;4979999;28;20369;-70
2022/10/30 04:49:35;;;;;;;46.00;18.05;;;;;;;7.87;100.00;97138.38;4977673;28;20027;-69
2022/10/30 04:52:00;;;;;;;25.83;16.83;;;;;;;8.02;100.00;97140.44;4977755;28;20035;-69
2022/10/30 04:54:27;;;;;;;25.13;16.67;;;;;;;8.16;100.00;97142.84;4987415;28;20039;-72
2022/10/30 04:56:53;;;;;;;23.20;14.77;;;;;;;8.12;100.00;97138.41;4995198;28;20033;-70
2022/10/30 04:59:18;;;;;;;25.63;15.38;;;;;;;8.19;100.00;97135.91;4995406;28;20034;-69
2022/10/30 05:01:43;;;;;;;28.58;15.45;;;;;;;8.14;100.00;97123.31;4997082;28;20034;-69
2022/10/30 05:04:09;;;;;;;32.83;16.40;;;;;;;8.02;100.00;97128.75;4995200;28;20108;-70
2022/10/30 05:06:34;;;;;;;71.22;17.92;;;;;;;7.88;100.00;97136.44;4994384;28;20026;-69
2022/10/30 05:08:59;;;;;;;75.45;16.98;;;;;;;7.87;100.00;97129.38;4988493;28;20035;-68
2022/10/30 05:11:25;;;;;;;41.13;17.42;;;;;;;7.78;100.00;97130.31;4990662;28;20045;-70
2022/10/30 05:13:50;;;;;;;50.40;18.02;;;;;;;7.69;100.00;97124.16;4994656;28;20065;-70
2022/10/30 05:16:16;;;;;;;92.55;19.75;;;;;;;7.64;100.00;97133.31;4994047;28;20062;-70
2022/10/30 05:18:41;;;;;;;80.20;18.85;;;;;;;7.71;100.00;97123.81;4994584;28;20440;-69
2022/10/30 05:21:06;;;;;;;51.03;28.48;;;;;;;7.90;100.00;97126.00;4993122;28;20038;-70
2022/10/30 05:23:32;;;;;;;35.90;20.02;;;;;;;8.03;100.00;97122.94;5015710;28;20090;-65
2022/10/30 05:26:00;;;;;;;22.92;16.35;;;;;;;8.09;100.00;97122.72;4980223;28;20113;-71
2022/10/30 05:28:26;;;;;;;96.88;18.40;;;;;;;7.90;100.00;97118.59;4977854;28;20046;-69
2022/10/30 05:30:52;;;;;;;71.10;18.30;;;;;;;7.80;100.00;97125.31;4977415;28;20027;-69
2022/10/30 05:33:18;;;;;;;75.72;17.85;;;;;;;7.83;100.00;97116.44;4984390;28;20095;-72
2022/10/30 05:35:44;;;;;;;26.45;16.13;;;;;;;7.94;100.00;97116.81;4977133;28;20121;-69
2022/10/30 05:38:10;;;;;;;26.50;17.30;;;;;;;8.09;100.00;97111.81;4976556;28;20377;-70
2022/10/30 05:40:35;;;;;;;23.13;16.20;;;;;;;8.30;100.00;97109.78;4976561;28;20035;-71
2022/10/30 05:43:01;;;;;;;23.20;15.25;;;;;;;8.45;100.00;97111.03;4978438;28;20491;-68
2022/10/30 05:45:27;;;;;;;24.75;16.33;;;;;;;8.50;100.00;97115.47;4987154;28;20070;-69
2022/10/30 05:48:03;;;;;;;37.63;14.82;;;;;;;8.44;100.00;97114.91;4994327;28;20038;-70
2022/10/30 05:50:30;;;;;;;64.28;15.85;;;;;;;8.03;100.00;97119.41;4994966;28;20474;-69
2022/10/30 05:52:56;;;;;;;83.40;17.25;;;;;;;7.83;100.00;97119.19;4994891;28;20117;-70
2022/10/30 05:55:22;;;;;;;77.70;19.38;;;;;;;7.81;100.00;97115.19;4993226;28;20041;-70
2022/10/30 05:57:48;;;;;;;60.30;18.77;;;;;;;7.84;100.00;97119.97;4991073;28;20034;-71
2022/10/30 06:00:14;;;;;;;43.58;18.58;;;;;;;8.00;100.00;97117.38;4983060;28;20480;-70
2022/10/30 06:02:39;;;;;;;28.88;17.38;;;;;;;8.21;100.00;97118.06;4985279;28;20121;-70
2022/10/30 06:05:04;;;;;;;45.00;16.67;;;;;;;8.45;100.00;97113.00;4974827;28;20030;-69
2022/10/30 06:07:30;;;;;;;31.67;16.27;;;;;;;8.59;100.00;97119.69;4973812;28;20039;-69
2022/10/30 06:09:55;;;;;;;26.10;15.95;;;;;;;8.64;100.00;97117.84;4974228;28;20030;-68
2022/10/30 06:12:21;;;;;;;56.22;16.80;;;;;;;8.75;100.00;97124.41;4975005;28;20035;-69
2022/10/30 06:14:46;;;;;;;21.50;14.98;;;;;;;8.77;100.00;97127.63;4991502;28;20089;-70
2022/10/30 06:17:11;;;;;;;27.92;16.13;;;;;;;8.83;100.00;97128.19;4973470;28;20571;-68
2022/10/30 06:19:37;;;;;;;29.50;16.00;;;;;;;8.88;100.00;97122.47;4973366;28;20038;-69
2022/10/30 06:22:02;;;;;;;34.08;15.05;;;;;;;8.97;100.00;97129.41;4972884;28;20031;-69
2022/10/30 06:24:27;;;;;;;31.75;13.93;;;;;;;9.08;100.00;97126.97;4972085;28;20105;-68
2022/10/30 06:26:53;;;;;;;34.88;14.40;;;;;;;9.20;100.00;97117.94;4973373;28;20050;-69
2022/10/30 06:29:18;;;;;;;81.15;16.40;;;;;;;9.11;100.00;97112.63;4985329;28;20062;-70
2022/10/30 06:31:43;;;;;;;25.88;14.32;;;;;;;9.03;100.00;97124.47;4981494;28;20034;-74
2022/10/30 06:34:09;;;;;;;21.50;13.82;;;;;;;9.16;100.00;97120.59;4979316;28;20101;-69
2022/10/30 06:36:34;;;;;;;55.38;15.52;;;;;;;8.87;100.00;97127.13;4980869;28;20050;-66
2022/10/30 06:39:00;;;;;;;21.10;14.10;;;;;;;8.95;100.00;97128.94;4974236;28;20038;-69
2022/10/30 06:41:25;;;;;;;58.70;15.20;;;;;;;8.97;100.00;97129.41;4976870;28;20046;-69
2022/10/30 06:43:51;;;;;;;68.97;16.42;;;;;;;8.75;100.00;97135.34;4982808;28;20411;-70
2022/10/30 06:46:16;;;;;;;30.13;16.10;;;;;;;8.57;100.00;97132.88;4983948;28;20030;-70
2022/10/30 06:48:41;;;;;;;25.98;16.25;;;;;;;8.85;100.00;97128.63;4992078;28;20034;-70
2022/10/30 06:51:07;;;;;;;26.38;15.45;;;;;;;9.05;100.00;97126.88;4992281;28;20045;-70
2022/10/30 06:53:32;;;;;;;101.22;18.13;;;;;;;8.78;100.00;97129.19;4992255;28;20113;-69
2022/10/30 06:56:00;;;;;;;26.30;15.40;;;;;;;8.93;100.00;97127.69;4990250;28;20030;-70
2022/10/30 06:58:28;;;;;;;29.50;15.65;;;;;;;9.13;100.00;97137.66;4981940;28;20031;-69
2022/10/30 07:00:54;;;;;;;23.58;15.15;;;;;;;9.28;100.00;97132.59;4984156;28;20320;-69
2022/10/30 07:03:20;;;;;;;27.08;15.15;;;;;;;9.43;100.00;97134.59;4992316;28;20117;-70
2022/10/30 07:05:46;;;;;;;19.85;14.25;;;;;;;9.49;100.00;97138.66;4991503;28;20101;-71
2022/10/30 07:08:11;;;;;;;31.52;14.15;;;;;;;9.54;100.00;97143.91;4992060;28;20113;-68
2022/10/30 07:10:37;;;;;;;22.77;14.48;;;;;;;9.66;100.00;97143.03;4992167;28;20064;-69
2022/10/30 07:13:03;;;;;;;24.98;13.80;;;;;;;9.75;100.00;97145.59;4985977;28;20068;-70
2022/10/30 07:15:28;;;;;;;23.85;13.88;;;;;;;9.90;100.00;97141.28;4990211;28;20657;-71
2022/10/30 07:17:56;;;;;;;19.50;13.70;;;;;;;10.01;100.00;97136.91;4972760;28;20058;-71
2022/10/30 07:20:22;;;;;;;42.00;12.80;;;;;;;10.07;100.00;97146.44;4972528;28;20039;-70
2022/10/30 07:22:48;;;;;;;18.65;12.40;;;;;;;10.05;100.00;97147.94;4972533;28;20031;-71
2022/10/30 07:25:13;;;;;;;16.73;13.05;;;;;;;10.15;100.00;97147.41;4972425;28;20130;-69
2022/10/30 07:27:47;;;;;;;17.70;12.05;;;;;;;10.20;100.00;97147.16;4971768;28;20039;-70
2022/10/30 07:30:15;;;;;;;31.98;12.50;;;;;;;10.27;100.00;97154.75;4994114;28;20069;-70
2022/10/30 07:32:40;;;;;;;48.35;17.27;;;;;;;9.89;100.00;97150.66;5014808;28;20030;-66
2022/10/30 07:35:07;;;;;;;22.90;15.75;;;;;;;9.96;100.00;97145.38;4995991;28;20121;-70
2022/10/30 07:37:32;;;;;;;25.67;14.38;;;;;;;10.18;100.00;97143.19;4984360;28;20110;-69
2022/10/30 07:39:57;;;;;;;21.33;14.02;;;;;;;10.26;100.00;97134.81;4994672;28;20114;-72
2022/10/30 07:42:23;;;;;;;19.58;13.50;;;;;;;10.48;100.00;97138.09;4987588;28;20124;-69
2022/10/30 07:44:48;;;;;;;16.55;12.73;;;;;;;10.59;100.00;97152.00;4991623;28;20053;-69
2022/10/30 07:47:15;;;;;;;34.55;12.93;;;;;;;10.60;100.00;97151.66;4976519;28;20043;-70
2022/10/30 07:49:40;;;;;;;22.48;14.85;;;;;;;10.64;100.00;97149.81;4977740;28;20030;-68
2022/10/30 07:52:06;;;;;;;33.53;14.95;;;;;;;10.64;100.00;97158.03;4977926;28;20113;-70
2022/10/30 07:54:31;;;;;;;25.85;15.07;;;;;;;10.75;100.00;97155.53;4978469;28;20034;-69
2022/10/30 07:56:57;;;;;;;30.88;16.27;;;;;;;10.97;100.00;97156.03;4976875;28;20030;-69
2022/10/30 07:59:24;;;;;;;24.13;14.43;;;;;;;11.12;100.00;97162.59;5002899;28;20073;-68
2022/10/30 08:01:49;;;;;;;40.22;14.80;;;;;;;11.15;100.00;97173.66;4990960;28;20039;-69
2022/10/30 08:04:15;;;;;;;68.88;14.23;;;;;;;11.04;100.00;97156.97;4978326;28;20092;-67
2022/10/30 08:06:40;;;;;;;20.83;13.23;;;;;;;11.18;100.00;97161.16;4976342;28;20035;-69
2022/10/30 08:09:06;;;;;;;17.08;12.80;;;;;;;11.39;100.00;97161.59;4977127;28;20034;-68
2022/10/30 08:11:31;;;;;;;24.60;13.95;;;;;;;11.55;100.00;97169.75;4976288;28;20066;-68
2022/10/30 08:13:57;;;;;;;24.85;15.38;;;;;;;11.64;100.00;97169.53;4988145;28;20041;-67
2022/10/30 08:16:23;;;;;;;34.40;11.43;;;;;;;11.89;100.00;97164.53;4988602;28;20050;-69
2022/10/30 08:18:49;;;;;;;24.48;11.98;;;;;;;12.07;100.00;97172.34;4985830;28;20493;-69
2022/10/30 08:21:14;;;;;;;88.53;11.90;;;;;;;12.12;100.00;97172.03;4977396;28;20050;-69
2022/10/30 08:23:39;;;;;;;35.75;10.57;;;;;;;12.15;100.00;97163.06;4982448;28;20034;-69
2022/10/30 08:26:05;;;;;;;18.00;11.13;;;;;;;12.27;100.00;97171.13;4992541;28;20036;-68
2022/10/30 08:28:31;;;;;;;29.38;9.45;;;;;;;12.34;100.00;97165.75;5010047;28;20045;-70
2022/10/30 08:30:57;;;;;;;17.80;10.10;;;;;;;12.36;100.00;97157.94;5003195;28;20444;-69
2022/10/30 08:33:23;;;;;;;56.38;10.95;;;;;;;12.32;100.00;97164.53;4999800;28;20060;-68
2022/10/30 08:35:50;;;;;;;13.10;9.05;;;;;;;12.20;100.00;97154.53;5003786;28;20034;-69
2022/10/30 08:38:16;;;;;;;15.38;10.13;;;;;;;12.16;100.00;97153.69;5002636;28;20121;-70
2022/10/30 08:40:42;;;;;;;30.58;10.73;;;;;;;12.16;100.00;97162.69;4984248;28;20109;-69
2022/10/30 08:43:08;;;;;;;16.00;9.65;;;;;;;12.18;100.00;97162.34;5002642;28;20086;-68
2022/10/30 08:45:34;;;;;;;30.88;9.40;;;;;;;12.22;100.00;97169.47;4975417;28;20035;-69
2022/10/30 08:48:02;;;;;;;54.00;10.50;;;;;;;12.08;100.00;97168.44;4976108;28;20103;-69
2022/10/30 08:50:28;;;;;;;98.38;10.82;;;;;;;11.93;100.00;97164.63;4976482;28;20041;-70
2022/10/30 08:52:54;;;;;;;43.78;10.43;;;;;;;11.67;100.00;97158.63;4977099;28;20488;-71
2022/10/30 08:55:19;;;;;;;23.67;13.00;;;;;;;11.96;100.00;97163.91;4982018;28;20102;-65
2022/10/30 08:57:45;;;;;;;69.40;11.50;;;;;;;11.88;100.00;97154.69;4970456;28;20047;-69
2022/10/30 09:00:11;;;;;;;54.63;11.18;;;;;;;11.99;100.00;97153.00;4960734;28;20057;-71
2022/10/30 09:02:38;;;;;;;58.10;10.85;;;;;;;12.05;100.00;97159.75;4965210;28;20074;-69
2022/10/30 09:05:05;;;;;;;20.73;10.35;;;;;;;12.24;100.00;97156.19;4962217;28;20066;-67
2022/10/30 09:07:31;;;;;;;96.10;11.48;;;;;;;12.32;100.00;97162.59;4962346;28;20047;-70
2022/10/30 09:09:56;;;;;;;13.63;10.15;;;;;;;12.53;100.00;97156.66;4971254;28;20444;-69
2022/10/30 09:12:22;;;;;;;14.93;10.48;;;;;;;12.80;100.00;97157.47;4954154;28;20052;-70
2022/10/30 09:14:47;;;;;;;15.10;9.38;;;;;;;12.98;100.00;97157.72;4965955;28;20055;-68
2022/10/30 09:17:12;;;;;;;13.13;9.00;;;;;;;13.18;100.00;97150.13;4961602;28;20105;-69
2022/10/30 09:19:38;;;;;;;29.15;9.98;;;;;;;13.06;100.00;97155.84;4967266;28;20055;-70
2022/10/30 09:22:04;;;;;;;41.15;10.35;;;;;;;13.15;100.00;97145.38;4967467;28;20046;-65
2022/10/30 09:24:29;;;;;;;14.48;9.32;;;;;;;13.52;100.00;97149.38;4976724;28;20073;-69
2022/10/30 09:26:55;;;;;;;50.95;8.65;;;;;;;13.39;100.00;97146.88;4984768;28;20046;-69
2022/10/30 09:29:20;;;;;;;11.80;8.10;;;;;;;13.48;100.00;97151.31;4981280;28;20042;-68
2022/10/30 09:31:46;;;;;;;11.43;8.80;;;;;;;13.61;100.00;97146.34;4985998;28;20042;-68
2022/10/30 09:34:11;;;;;;;106.70;11.50;;;;;;;13.44;100.00;97155.97;4978579;28;20129;-69
2022/10/30 09:36:37;;;;;;;14.07;8.90;;;;;;;13.36;100.00;97153.16;4974381;28;20591;-67
2022/10/30 09:39:02;;;;;;;11.57;8.23;;;;;;;13.55;100.00;97154.16;4967698;28;20043;-64
2022/10/30 09:41:54;;;;;;;28.67;9.13;;;;;;;13.61;100.00;97154.59;4984634;28;20046;-70
2022/10/30 09:44:28;;;;;;;12.93;9.40;;;;;;;13.71;100.00;97154.72;4963049;28;20058;-70
2022/10/30 09:47:04;;;;;;;35.75;10.95;;;;;;;13.82;100.00;97154.06;4965590;28;20202;-70
2022/10/30 09:49:48;;;;;;;69.90;11.57;;;;;;;13.89;100.00;97151.38;4976141;28;20050;-67
2022/10/30 09:52:25;;;;;;;18.23;10.23;;;;;;;13.81;100.00;97153.28;4943930;28;20039;-69
2022/10/30 09:55:31;;;;;;;14.95;10.32;;;;;;;13.64;100.00;97154.66;4944580;28;20047;-68
2022/10/30 09:58:00;;;;;;;17.80;10.13;;;;;;;13.51;100.00;97158.81;4965025;28;20058;-69
2022/10/30 10:00:36;;;;;;;13.80;10.73;;;;;;;13.56;100.00;97159.28;4976501;28;20141;-69
2022/10/30 10:03:11;;;;;;;26.17;12.40;;;;;;;13.67;100.00;97162.16;4983997;28;20042;-64
2022/10/30 10:05:45;;;;;;;95.65;12.68;;;;;;;13.65;100.00;97155.44;4983781;28;20804;-69
2022/10/30 10:08:18;;;;;;;23.35;11.40;;;;;;;13.83;100.00;97161.13;4976723;28;20046;-69
2022/10/30 10:10:58;;;;;;;46.97;13.57;;;;;;;13.87;100.00;97159.22;4983197;28;20491;-70
2022/10/30 10:13:40;;;;;;;157.85;15.77;;;;;;;13.18;100.00;97155.63;4975439;28;20517;-69
2022/10/30 10:16:16;;;;;;;20.90;12.88;;;;;;;13.44;100.00;97153.22;4960734;28;20042;-68
2022/10/30 10:18:47;;;;;;;91.97;15.55;;;;;;;13.24;100.00;97147.06;4963710;28;20043;-66
2022/10/30 10:21:35;;;;;;;26.25;13.95;;;;;;;13.49;100.00;97155.66;4958268;28;20054;-69
2022/10/30 10:24:03;;;;;;;25.13;14.10;;;;;;;13.39;100.00;97148.84;4964659;28;20506;-69
2022/10/30 10:26:45;;;;;;;20.15;14.27;;;;;;;13.57;100.00;97149.84;4982350;28;20132;-69
2022/10/30 10:29:41;;;;;;;119.50;16.75;;;;;;;13.42;100.00;97153.59;4969724;28;20045;-69
2022/10/30 10:32:18;;;;;;;30.13;13.40;;;;;;;13.72;100.00;97150.81;4972271;28;20038;-69
2022/10/30 10:35:08;;;;;;;103.13;19.13;;;;;;;13.03;100.00;97153.84;4982429;28;20376;-67
2022/10/30 10:37:39;;;;;;;51.25;25.80;;;;;;;13.56;100.00;97144.75;4974385;28;20061;-67
2022/10/30 10:40:30;;;;;;;21.02;15.13;;;;;;;13.53;100.00;97139.97;4978908;28;20050;-68
2022/10/30 10:43:01;;;;;;;86.97;17.23;;;;;;;13.55;100.00;97146.69;4981763;28;20038;-69
2022/10/30 10:45:45;;;;;;;27.67;16.55;;;;;;;13.56;100.00;97134.50;4952211;28;20100;-68
2022/10/30 10:48:16;;;;;;;23.13;15.60;;;;;;;13.69;100.00;97132.28;4958940;28;20129;-67
2022/10/30 10:50:48;;;;;;;23.35;16.77;;;;;;;13.96;100.00;97137.69;4964705;28;20629;-69
2022/10/30 10:53:24;;;;;;;22.65;15.32;;;;;;;14.17;100.00;97133.53;4959833;28;20559;-70
2022/10/30 10:55:53;;;;;;;43.65;16.55;;;;;;;14.05;100.00;97129.91;4961791;28;20043;-68
2022/10/30 10:58:29;;;;;;;48.60;16.08;;;;;;;13.61;100.00;97125.13;4974317;28;20038;-69
2022/10/30 11:00:57;;;;;;;29.70;17.40;;;;;;;13.71;100.00;97124.44;4981841;28;20069;-67
2022/10/30 11:03:59;;;;;;;69.95;22.42;;;;;;;13.14;100.00;97126.47;4978744;28;20268;-68
2022/10/30 11:06:33;;;;;;;37.13;23.00;;;;;;;13.39;100.00;97118.56;4969311;28;20046;-69
2022/10/30 11:09:15;;;;;;;33.33;19.30;;;;;;;13.86;100.00;97122.63;4977411;28;20092;-69
2022/10/30 11:11:43;;;;;;;23.65;16.70;;;;;;;14.22;100.00;97122.97;4977911;28;20038;-71
2022/10/30 11:14:18;;;;;;;28.05;19.73;;;;;;;14.36;100.00;97116.78;4973190;28;20121;-69
2022/10/30 11:16:55;;;;;;;29.10;17.23;;;;;;;14.71;100.00;97112.75;4981736;28;20407;-67
2022/10/30 11:19:21;;;;;;;24.52;15.95;;;;;;;15.02;100.00;97116.09;4977061;28;20137;-68
2022/10/30 11:21:52;;;;;;;30.15;17.27;;;;;;;15.03;100.00;97106.63;4974133;28;20198;-68
2022/10/30 11:24:33;;;;;;;20.55;14.98;;;;;;;15.03;100.00;97104.66;4976099;28;20077;-68